ULNB weather

Borovichi Airport
Borovichi, Novgorod Oblast, Russia

Public forecast

Using degrees Celsius for public forecast. Weather courtesy of forecast.io.

Closest aviation weather report (METAR) to Borovichi Airport

Closest report is Pulkovo Airport, 138.5 nm (256.6 km) NW. Retrieved 2019/12/16 07:30 UTC (0 seconds ago):

ULLI 160730Z 16003MPS 120V190 9999 BKN004 OVC030 01/00 Q0995 R88/290050 NOSIG RMK QBB140 OBST OBSC

Closest aviation forecast (TAF) to Borovichi Airport

Closest forecast is Pulkovo Airport, 138.5 nm (256.6 km) NW. Retrieved 2019/12/16 09:21 UTC (0 seconds ago):

TAF ULLI 160755Z 1609/1709 16003MPS 4000 -RASN BR BKN006 BKN020 TEMPO 1609/1621 2100 -SHSNRA BR BKN004 BKN015CB BECMG 1614/1616 25003MPS TEMPO 1621/1706 22003MPS 2100 -SHRASN BR BKN004 BKN015CB FM170800 22005G12MPS 6000 BKN011 BKN030